createdAt,value
2018-12-10T00:00:28.020Z,4.80
2018-12-10T00:03:01.366Z,4.80
2018-12-10T00:05:29.600Z,4.70
2018-12-10T00:07:57.730Z,4.70
2018-12-10T00:10:25.882Z,4.70
2018-12-10T00:12:54.096Z,4.70
2018-12-10T00:15:22.385Z,4.70
2018-12-10T00:17:50.566Z,4.70
2018-12-10T00:20:18.731Z,4.70
2018-12-10T00:22:46.869Z,4.70
2018-12-10T00:25:15.080Z,4.70
2018-12-10T00:27:43.210Z,4.70
2018-12-10T00:30:11.395Z,4.70
2018-12-10T00:32:39.610Z,4.70
2018-12-10T00:35:07.848Z,4.70
2018-12-10T00:37:36.072Z,4.80
2018-12-10T00:40:05.028Z,4.70
2018-12-10T00:42:33.189Z,4.70
2018-12-10T00:45:01.366Z,4.80
2018-12-10T00:47:29.627Z,4.80
2018-12-10T00:49:57.763Z,4.80
2018-12-10T00:52:26.008Z,4.80
2018-12-10T00:54:54.285Z,4.80
2018-12-10T00:57:22.437Z,4.80
2018-12-10T00:59:50.709Z,4.80
2018-12-10T01:02:19.080Z,4.80
2018-12-10T01:04:47.242Z,4.70
2018-12-10T01:07:15.475Z,4.70
2018-12-10T01:09:43.638Z,4.70
2018-12-10T01:12:11.821Z,4.70
2018-12-10T01:14:39.939Z,4.70
2018-12-10T01:17:08.090Z,4.60
2018-12-10T01:19:36.542Z,4.60
2018-12-10T01:22:04.849Z,4.60
2018-12-10T01:24:33.020Z,4.60
2018-12-10T01:27:01.161Z,4.60
2018-12-10T01:29:29.321Z,4.60
2018-12-10T01:31:57.493Z,4.60
2018-12-10T01:34:25.777Z,4.50
2018-12-10T01:36:53.957Z,4.50
2018-12-10T01:39:22.107Z,4.50
2018-12-10T01:41:50.253Z,4.50
2018-12-10T01:44:18.433Z,4.50
2018-12-10T01:46:47.054Z,4.50
2018-12-10T01:49:15.417Z,4.40
2018-12-10T01:51:43.621Z,4.40
2018-12-10T01:54:11.836Z,4.40
2018-12-10T01:56:39.992Z,4.40
2018-12-10T01:59:09.477Z,4.40
2018-12-10T02:01:39.744Z,4.40
2018-12-10T02:04:08.547Z,4.40
2018-12-10T02:06:38.212Z,4.40
2018-12-10T02:09:08.674Z,4.40
2018-12-10T02:11:38.363Z,4.40
2018-12-10T02:14:08.435Z,4.40
2018-12-10T02:16:38.000Z,4.40
2018-12-10T02:19:06.794Z,4.40
2018-12-10T02:21:36.911Z,4.40
2018-12-10T02:24:05.528Z,4.40
2018-12-10T02:26:35.712Z,4.40
2018-12-10T02:29:09.812Z,4.40
2018-12-10T02:31:39.473Z,4.40
2018-12-10T02:34:09.020Z,4.30
2018-12-10T02:36:37.633Z,4.30
2018-12-10T02:39:08.305Z,4.30
2018-12-10T02:41:37.723Z,4.30
2018-12-10T02:44:06.254Z,4.30
2018-12-10T02:46:37.408Z,4.30
2018-12-10T02:49:06.543Z,4.40
2018-12-10T02:51:36.109Z,4.30
2018-12-10T02:54:04.871Z,4.30
2018-12-10T02:56:33.932Z,4.30
2018-12-10T02:59:02.905Z,4.30
2018-12-10T03:01:32.036Z,4.40
2018-12-10T03:04:00.863Z,4.30
2018-12-10T03:06:29.923Z,4.30
2018-12-10T03:08:59.353Z,4.30
2018-12-10T03:11:28.771Z,4.30
2018-12-10T03:13:57.595Z,4.30
2018-12-10T03:16:26.534Z,4.30
2018-12-10T03:18:55.421Z,4.40
2018-12-10T03:21:24.639Z,4.30
2018-12-10T03:23:53.730Z,4.40
2018-12-10T03:26:22.981Z,4.40
2018-12-10T03:28:51.726Z,4.30
2018-12-10T03:31:20.528Z,4.30
2018-12-10T03:33:50.385Z,4.30
2018-12-10T03:36:19.939Z,4.30
2018-12-10T03:38:55.394Z,4.30
2018-12-10T03:41:24.389Z,4.20
2018-12-10T03:43:53.177Z,4.20
2018-12-10T03:46:22.550Z,4.20
2018-12-10T03:48:51.080Z,4.10
2018-12-10T03:51:19.952Z,4.10
2018-12-10T03:53:48.996Z,4.10
2018-12-10T03:56:18.635Z,4.10
2018-12-10T03:58:47.443Z,4.10
2018-12-10T04:01:16.329Z,4.00
2018-12-10T04:03:47.389Z,4.00
2018-12-10T04:06:16.322Z,3.90
2018-12-10T04:08:45.421Z,3.90
2018-12-10T04:11:14.240Z,3.90
2018-12-10T04:13:43.147Z,3.80
2018-12-10T04:16:11.988Z,3.80
2018-12-10T04:18:40.945Z,3.90
2018-12-10T04:21:10.106Z,3.90
2018-12-10T04:23:38.929Z,3.90
2018-12-10T04:26:07.551Z,3.90
2018-12-10T04:28:36.492Z,3.90
2018-12-10T04:31:05.214Z,3.90
2018-12-10T04:33:34.232Z,3.90
2018-12-10T04:36:02.984Z,3.90
2018-12-10T04:38:31.696Z,3.90
2018-12-10T04:41:00.399Z,3.80
2018-12-10T04:43:29.672Z,3.80
2018-12-10T04:45:58.558Z,3.80
2018-12-10T04:48:27.298Z,3.70
2018-12-10T04:50:57.165Z,3.70
2018-12-10T04:53:26.175Z,3.70
2018-12-10T04:55:54.770Z,3.70
2018-12-10T04:58:23.472Z,3.70
2018-12-10T05:00:52.165Z,3.70
2018-12-10T05:03:22.460Z,3.70
2018-12-10T05:05:51.273Z,3.70
2018-12-10T05:08:20.067Z,3.70
2018-12-10T05:10:49.108Z,3.60
2018-12-10T05:13:17.908Z,3.70
2018-12-10T05:15:46.621Z,3.70
2018-12-10T05:18:16.654Z,3.70
2018-12-10T05:20:45.752Z,3.70
2018-12-10T05:23:14.683Z,3.70
2018-12-10T05:25:43.587Z,3.80
2018-12-10T05:28:12.364Z,3.70
2018-12-10T05:30:41.194Z,3.80
2018-12-10T05:33:09.881Z,3.80
2018-12-10T05:35:38.648Z,3.80
2018-12-10T05:38:07.307Z,3.80
2018-12-10T05:40:36.702Z,3.80
2018-12-10T05:43:05.871Z,3.80
2018-12-10T05:45:34.971Z,3.80
2018-12-10T05:48:03.690Z,3.80
2018-12-10T05:50:32.485Z,3.80
2018-12-10T05:53:08.482Z,3.90
2018-12-10T05:55:37.133Z,3.90
2018-12-10T05:58:06.874Z,4.00
2018-12-10T06:00:35.663Z,4.00
2018-12-10T06:03:04.831Z,4.00
2018-12-10T06:05:33.542Z,4.00
2018-12-10T06:08:02.413Z,3.90
2018-12-10T06:10:31.487Z,3.80
2018-12-10T06:13:00.262Z,3.80
2018-12-10T06:15:29.096Z,3.70
2018-12-10T06:17:57.827Z,3.70
2018-12-10T06:20:26.551Z,3.70
2018-12-10T06:22:55.583Z,3.70
2018-12-10T06:25:24.490Z,3.70
2018-12-10T06:27:53.696Z,3.70
2018-12-10T06:30:22.992Z,3.70
2018-12-10T06:32:51.877Z,3.80
2018-12-10T06:35:20.815Z,3.70
2018-12-10T06:37:49.788Z,3.70
2018-12-10T06:40:18.516Z,3.70
2018-12-10T06:42:47.564Z,3.70
2018-12-10T06:45:17.360Z,3.70
2018-12-10T06:47:46.519Z,3.70
2018-12-10T06:50:17.239Z,3.70
2018-12-10T06:52:46.392Z,3.70
2018-12-10T06:55:15.394Z,3.70
2018-12-10T06:57:44.116Z,3.70
2018-12-10T07:00:13.069Z,3.70
2018-12-10T07:02:42.091Z,3.80
2018-12-10T07:05:13.519Z,3.80
2018-12-10T07:07:42.317Z,3.80
2018-12-10T07:10:12.868Z,3.70
2018-12-10T07:12:42.191Z,3.70
2018-12-10T07:15:11.505Z,3.70
2018-12-10T07:17:41.875Z,3.70
2018-12-10T07:20:10.689Z,3.60
2018-12-10T07:22:41.001Z,3.60
2018-12-10T07:25:09.727Z,3.60
2018-12-10T07:27:38.758Z,3.60
2018-12-10T07:30:10.113Z,3.50
2018-12-10T07:32:38.901Z,3.50
2018-12-10T07:35:08.005Z,3.50
2018-12-10T07:37:37.887Z,3.50
2018-12-10T07:40:07.241Z,3.60
2018-12-10T07:42:36.189Z,3.60
2018-12-10T07:45:06.087Z,3.60
2018-12-10T07:47:35.115Z,3.60
2018-12-10T07:50:04.196Z,3.60
2018-12-10T07:52:33.540Z,3.60
2018-12-10T07:55:04.535Z,3.60
2018-12-10T07:57:33.891Z,3.60
2018-12-10T08:00:03.094Z,3.70
2018-12-10T08:02:32.028Z,3.60
2018-12-10T08:05:03.373Z,3.60
2018-12-10T08:07:32.437Z,3.60
2018-12-10T08:10:01.201Z,3.60
2018-12-10T08:12:30.368Z,3.60
2018-12-10T08:14:59.669Z,3.60
2018-12-10T08:17:30.423Z,3.60
2018-12-10T08:19:59.406Z,3.60
2018-12-10T08:22:28.229Z,3.70
2018-12-10T08:24:56.900Z,3.70
2018-12-10T08:27:26.357Z,3.80
2018-12-10T08:29:55.213Z,3.90
2018-12-10T08:32:23.968Z,4.10
2018-12-10T08:34:53.703Z,4.30
2018-12-10T08:37:22.695Z,4.50
2018-12-10T08:39:51.571Z,4.50
2018-12-10T08:42:22.046Z,4.40
2018-12-10T08:44:51.015Z,4.40
2018-12-10T08:47:19.685Z,4.30
2018-12-10T08:49:48.443Z,4.20
2018-12-10T08:52:18.987Z,4.10
2018-12-10T08:54:48.013Z,4.10
2018-12-10T08:57:16.654Z,4.10
2018-12-10T08:59:45.709Z,4.10
2018-12-10T09:02:14.913Z,4.00
2018-12-10T09:04:43.921Z,4.00
2018-12-10T09:07:13.193Z,4.10
2018-12-10T09:09:42.762Z,4.90
2018-12-10T09:12:11.483Z,5.90
2018-12-10T09:14:40.122Z,6.40
2018-12-10T09:17:09.064Z,6.20
2018-12-10T09:19:37.936Z,5.80
2018-12-10T09:22:06.927Z,5.60
2018-12-10T09:24:36.189Z,5.80
2018-12-10T09:27:05.119Z,6.00
2018-12-10T09:29:33.922Z,6.00
2018-12-10T09:32:02.600Z,5.90
2018-12-10T09:34:32.840Z,5.60
2018-12-10T09:37:02.093Z,5.30
2018-12-10T09:39:31.231Z,5.10
2018-12-10T09:42:00.361Z,4.90
2018-12-10T09:44:29.230Z,4.70
2018-12-10T09:46:59.077Z,4.60
2018-12-10T09:49:28.170Z,4.50
2018-12-10T09:52:02.092Z,5.00
2018-12-10T09:54:30.754Z,6.00
2018-12-10T09:56:59.552Z,6.40
2018-12-10T09:59:28.449Z,7.10
2018-12-10T10:01:57.113Z,7.80
2018-12-10T10:04:32.735Z,8.30
2018-12-10T10:07:02.555Z,7.60
2018-12-10T10:09:31.762Z,6.80
2018-12-10T10:12:01.916Z,6.30
2018-12-10T10:14:30.727Z,6.00
2018-12-10T10:16:59.788Z,5.90
2018-12-10T10:19:28.786Z,6.20
2018-12-10T10:21:58.334Z,6.50
2018-12-10T10:24:27.990Z,6.10
2018-12-10T10:26:56.825Z,5.80
2018-12-10T10:29:25.897Z,5.40
2018-12-10T10:31:54.650Z,5.20
2018-12-10T10:34:23.938Z,5.10
2018-12-10T10:36:52.819Z,4.90
2018-12-10T10:39:22.922Z,4.70
2018-12-10T10:41:53.684Z,4.60
2018-12-10T10:44:26.180Z,4.50
2018-12-10T10:46:58.297Z,4.40
2018-12-10T10:52:07.957Z,4.50
2018-12-10T10:54:37.254Z,4.70
2018-12-10T10:57:06.157Z,4.80
2018-12-10T10:59:35.079Z,4.80
2018-12-10T11:04:11.517Z,4.80
2018-12-10T11:06:40.539Z,4.90
2018-12-10T11:09:15.596Z,5.30
2018-12-10T11:11:44.202Z,5.30
2018-12-10T11:14:14.831Z,5.30
2018-12-10T11:16:45.214Z,5.30
2018-12-10T11:19:16.291Z,5.20
2018-12-10T11:21:48.102Z,5.20
2018-12-10T11:24:17.074Z,5.20
2018-12-10T11:26:47.687Z,5.20
2018-12-10T11:29:17.334Z,5.10
2018-12-10T11:31:46.643Z,5.20
2018-12-10T11:34:15.454Z,5.30
2018-12-10T11:36:46.989Z,5.40
2018-12-10T11:39:15.957Z,5.80
2018-12-10T11:41:46.609Z,6.50
2018-12-10T11:44:19.152Z,6.80
2018-12-10T11:46:48.691Z,6.50
2018-12-10T11:49:17.672Z,6.50
2018-12-10T11:51:46.422Z,6.90
2018-12-10T11:54:18.908Z,6.70
2018-12-10T11:56:48.952Z,6.20
2018-12-10T11:59:17.903Z,5.90
2018-12-10T12:01:46.815Z,5.60
2018-12-10T12:04:15.812Z,5.50
2018-12-10T12:06:44.476Z,5.40
2018-12-10T12:09:13.601Z,5.40
2018-12-10T12:11:44.000Z,5.30
2018-12-10T12:14:13.073Z,5.50
2018-12-10T12:16:42.410Z,5.80
2018-12-10T12:19:11.786Z,6.20
2018-12-10T12:21:41.031Z,6.60
2018-12-10T12:24:10.505Z,6.80
2018-12-10T12:26:39.905Z,6.90
2018-12-10T12:29:08.887Z,6.60
2018-12-10T12:31:39.039Z,6.30
2018-12-10T12:34:16.827Z,6.00
2018-12-10T12:36:46.215Z,5.80
2018-12-10T12:39:15.871Z,5.60
2018-12-10T12:41:45.672Z,5.60
2018-12-10T12:44:14.892Z,5.60
2018-12-10T12:46:45.351Z,5.70
2018-12-10T12:49:18.144Z,6.00
2018-12-10T12:51:48.979Z,6.10
2018-12-10T12:54:20.106Z,6.40
2018-12-10T12:56:49.339Z,6.50
2018-12-10T12:59:20.188Z,6.60
2018-12-10T13:01:51.547Z,6.60
2018-12-10T13:04:22.109Z,6.60
2018-12-10T13:06:53.004Z,6.60
2018-12-10T13:09:22.965Z,6.60
2018-12-10T13:11:53.350Z,6.40
2018-12-10T13:14:31.180Z,6.20
2018-12-10T13:17:00.734Z,6.10
2018-12-10T13:19:29.867Z,5.90
2018-12-10T13:21:59.586Z,5.80
2018-12-10T13:24:28.347Z,5.70
2018-12-10T13:26:57.185Z,5.70
2018-12-10T13:30:16.369Z,5.70
2018-12-10T13:31:59.404Z,5.70
2018-12-10T13:34:37.129Z,5.80
2018-12-10T13:37:07.439Z,5.70
2018-12-10T13:39:37.288Z,5.70
2018-12-10T13:42:06.551Z,5.70
2018-12-10T13:44:35.368Z,5.60
2018-12-10T13:47:03.983Z,5.60
2018-12-10T13:49:32.878Z,5.60
2018-12-10T13:52:01.981Z,5.60
2018-12-10T13:54:31.377Z,5.70
2018-12-10T13:57:00.319Z,5.70
2018-12-10T13:59:29.740Z,5.70
2018-12-10T14:01:58.387Z,5.70
2018-12-10T14:04:31.195Z,5.60
2018-12-10T14:07:01.048Z,5.60
2018-12-10T14:09:29.960Z,5.60
2018-12-10T14:12:01.578Z,5.60
2018-12-10T14:14:30.333Z,5.60
2018-12-10T14:16:59.401Z,5.50
2018-12-10T14:19:27.975Z,5.40
2018-12-10T14:21:56.646Z,5.40
2018-12-10T14:24:26.809Z,5.30
2018-12-10T14:26:57.278Z,5.30
2018-12-10T14:29:26.358Z,5.20
2018-12-10T14:31:56.010Z,5.20
2018-12-10T14:34:26.090Z,5.10
2018-12-10T14:36:54.896Z,5.10
2018-12-10T14:39:23.840Z,5.00
2018-12-10T14:41:53.562Z,5.00
2018-12-10T14:44:22.448Z,5.00
2018-12-10T14:46:53.039Z,4.90
2018-12-10T14:49:21.730Z,4.90
2018-12-10T14:51:50.565Z,4.90
2018-12-10T14:54:20.251Z,4.90
2018-12-10T14:56:49.136Z,4.80
2018-12-10T14:59:18.174Z,4.80
2018-12-10T15:01:48.523Z,4.90
2018-12-10T15:04:17.934Z,4.90
2018-12-10T15:06:46.415Z,4.90
2018-12-10T15:09:16.272Z,4.80
2018-12-10T15:11:45.906Z,4.80
2018-12-10T15:14:15.219Z,4.70
2018-12-10T15:16:43.830Z,4.70
2018-12-10T15:19:12.726Z,4.70
2018-12-10T15:21:41.620Z,4.70
2018-12-10T15:24:10.465Z,4.70
2018-12-10T15:26:39.210Z,4.70
2018-12-10T15:29:08.966Z,4.70
2018-12-10T15:31:38.290Z,4.70
2018-12-10T15:34:08.485Z,4.70
2018-12-10T15:36:37.821Z,4.60
2018-12-10T15:39:09.282Z,4.50
2018-12-10T15:41:37.935Z,4.50
2018-12-10T15:44:07.559Z,4.50
2018-12-10T15:46:37.344Z,4.50
2018-12-10T15:49:06.697Z,4.50
2018-12-10T15:51:38.076Z,4.50
2018-12-10T15:54:06.966Z,4.50
2018-12-10T15:56:36.428Z,4.50
2018-12-10T15:59:06.010Z,4.60
2018-12-10T16:01:34.604Z,4.50
2018-12-10T16:04:03.572Z,4.60
2018-12-10T16:06:32.031Z,4.60
2018-12-10T16:09:01.760Z,4.60
2018-12-10T16:11:30.102Z,4.60
2018-12-10T16:13:59.776Z,4.60
2018-12-10T16:16:29.070Z,4.50
2018-12-10T16:18:57.894Z,4.50
2018-12-10T16:21:29.993Z,4.50
2018-12-10T16:23:58.647Z,4.40
2018-12-10T16:26:27.914Z,4.40
2018-12-10T16:28:57.465Z,4.30
2018-12-10T16:31:26.239Z,4.20
2018-12-10T16:33:55.336Z,4.20
2018-12-10T16:36:25.739Z,4.20
2018-12-10T16:38:54.602Z,4.20
2018-12-10T16:41:23.509Z,4.20
2018-12-10T16:43:52.427Z,4.20
2018-12-10T16:46:22.292Z,4.30
2018-12-10T16:48:52.689Z,4.20
2018-12-10T16:51:25.440Z,4.30
2018-12-10T16:54:01.895Z,4.20
2018-12-10T16:59:10.523Z,4.20
2018-12-10T17:01:46.263Z,4.10
2018-12-10T17:04:21.061Z,4.00
2018-12-10T17:07:03.252Z,4.00
2018-12-10T17:09:35.360Z,4.00
2018-12-10T17:12:09.936Z,4.00
2018-12-10T17:14:40.651Z,4.00
2018-12-10T17:17:14.133Z,4.00
2018-12-10T17:19:46.451Z,4.00
2018-12-10T17:22:18.157Z,4.00
2018-12-10T17:24:51.953Z,4.00
2018-12-10T17:27:26.904Z,4.00
2018-12-10T17:29:57.691Z,4.00
2018-12-10T17:32:29.767Z,3.90
2018-12-10T17:35:06.634Z,3.90
2018-12-10T17:37:37.498Z,4.00
2018-12-10T17:40:12.024Z,3.90
2018-12-10T17:42:46.335Z,4.00
2018-12-10T17:45:18.355Z,4.00
2018-12-10T17:47:50.117Z,4.00
2018-12-10T17:50:22.599Z,4.00
2018-12-10T17:52:55.322Z,4.00
2018-12-10T17:55:38.415Z,4.00
2018-12-10T18:00:45.281Z,3.90
2018-12-10T18:03:21.925Z,3.90
2018-12-10T18:05:52.595Z,3.90
2018-12-10T18:08:29.772Z,3.90
2018-12-10T18:11:00.269Z,3.90
2018-12-10T18:13:33.521Z,3.80
2018-12-10T18:16:05.068Z,3.80
2018-12-10T18:18:34.791Z,3.80
2018-12-10T18:21:04.895Z,3.80
2018-12-10T18:23:36.084Z,3.90
2018-12-10T18:26:05.832Z,3.90
2018-12-10T18:28:36.726Z,3.90
2018-12-10T18:31:15.949Z,3.90
2018-12-10T18:33:51.053Z,3.90
2018-12-10T18:36:20.276Z,3.90
2018-12-10T18:38:49.343Z,3.90
2018-12-10T18:41:19.559Z,3.80
2018-12-10T18:43:48.674Z,3.90
2018-12-10T18:46:18.094Z,4.00
2018-12-10T18:48:46.761Z,3.90
2018-12-10T18:51:18.705Z,3.90
2018-12-10T18:53:48.120Z,3.90
2018-12-10T19:25:30.966Z,4.00
2018-12-10T19:28:01.247Z,4.00
2018-12-10T19:30:30.952Z,4.00
2018-12-10T19:32:59.867Z,4.00
2018-12-10T19:35:29.866Z,4.00
2018-12-10T19:38:06.415Z,4.10
2018-12-10T19:40:42.963Z,4.10
2018-12-10T19:43:12.162Z,4.20
2018-12-10T19:45:43.043Z,4.20
2018-12-10T19:48:13.059Z,4.20
2018-12-10T19:50:47.398Z,4.30
2018-12-10T19:53:16.961Z,4.30
2018-12-10T19:55:47.042Z,4.40
2018-12-10T19:58:17.788Z,4.40
2018-12-10T20:00:47.346Z,4.40
2018-12-10T20:03:18.010Z,4.40
2018-12-10T20:08:26.715Z,4.30
2018-12-10T20:10:55.867Z,4.40
2018-12-10T20:13:28.683Z,4.30
2018-12-10T20:15:58.918Z,4.30
2018-12-10T20:18:35.066Z,4.30
2018-12-10T20:21:07.525Z,4.20
2018-12-10T20:23:36.338Z,4.20
2018-12-10T20:26:05.284Z,4.20
2018-12-10T20:28:34.278Z,4.10
2018-12-10T20:31:03.390Z,4.20
2018-12-10T20:33:38.343Z,4.10
2018-12-10T20:36:12.725Z,4.10
2018-12-10T20:38:41.685Z,4.10
2018-12-10T20:41:14.732Z,4.10
2018-12-10T20:43:51.277Z,4.10
2018-12-10T20:46:21.539Z,4.10
2018-12-10T20:48:52.978Z,4.10
2018-12-10T20:51:27.116Z,4.10
2018-12-10T20:54:00.609Z,4.10
2018-12-10T20:56:36.542Z,4.10
2018-12-10T20:59:05.719Z,4.10
2018-12-10T21:01:34.694Z,4.10
2018-12-10T21:04:03.813Z,4.10
2018-12-10T21:06:39.946Z,4.10
2018-12-10T21:09:11.123Z,4.10
2018-12-10T21:11:40.572Z,4.10
2018-12-10T21:14:14.948Z,4.10
2018-12-10T21:16:43.858Z,4.10
2018-12-10T21:19:15.349Z,4.20
2018-12-10T21:21:44.914Z,4.20
2018-12-10T21:24:13.997Z,4.20
2018-12-10T21:26:43.473Z,4.20
2018-12-10T21:29:13.041Z,4.20
2018-12-10T21:31:43.295Z,4.20
2018-12-10T21:34:12.655Z,4.30
2018-12-10T21:36:44.720Z,4.30
2018-12-10T21:39:14.389Z,4.30
2018-12-10T21:41:44.179Z,4.30
2018-12-10T21:44:13.368Z,4.30
2018-12-10T21:46:44.192Z,4.30
2018-12-10T21:49:13.969Z,4.30
2018-12-10T21:51:45.856Z,4.30
2018-12-10T21:54:15.348Z,4.30
2018-12-10T21:56:44.372Z,4.30
2018-12-10T21:59:13.751Z,4.20
2018-12-10T22:01:42.765Z,4.20
2018-12-10T22:04:11.982Z,4.20
2018-12-10T22:06:40.995Z,4.10
2018-12-10T22:09:09.834Z,4.10
2018-12-10T22:11:43.519Z,4.10
2018-12-10T22:14:12.339Z,4.10
2018-12-10T22:16:41.386Z,4.20
2018-12-10T22:19:10.085Z,4.20
2018-12-10T22:21:39.089Z,4.20
2018-12-10T22:24:08.208Z,4.20
2018-12-10T22:26:36.948Z,4.20
2018-12-10T22:29:05.934Z,4.20
2018-12-10T22:31:34.996Z,4.20
2018-12-10T22:34:04.224Z,4.20
2018-12-10T22:36:34.543Z,4.20
2018-12-10T22:39:05.140Z,4.20
2018-12-10T22:41:34.051Z,4.20
2018-12-10T22:44:03.746Z,4.20
2018-12-10T22:46:32.639Z,4.10
2018-12-10T22:49:02.123Z,4.10
2018-12-10T22:51:32.142Z,4.10
2018-12-10T22:54:02.467Z,4.10
2018-12-10T22:56:32.744Z,4.10
2018-12-10T22:59:01.439Z,4.10
2018-12-10T23:01:30.659Z,4.10
2018-12-10T23:03:59.651Z,4.10
2018-12-10T23:06:28.483Z,4.10
2018-12-10T23:08:57.458Z,4.10
2018-12-10T23:11:26.739Z,4.10
2018-12-10T23:13:55.871Z,4.10
2018-12-10T23:16:25.303Z,4.10
2018-12-10T23:18:54.945Z,4.10
2018-12-10T23:21:24.036Z,4.10
2018-12-10T23:23:59.581Z,4.00
2018-12-10T23:26:28.341Z,4.00
2018-12-10T23:28:57.070Z,4.00
2018-12-10T23:31:27.022Z,4.00
2018-12-10T23:33:56.432Z,4.00
2018-12-10T23:36:25.301Z,4.00
2018-12-10T23:38:54.150Z,4.00
2018-12-10T23:41:23.141Z,4.00
2018-12-10T23:43:52.884Z,4.00
2018-12-10T23:46:21.496Z,4.00
2018-12-10T23:48:50.786Z,4.00
2018-12-10T23:51:20.407Z,4.10
2018-12-10T23:53:49.256Z,4.10
2018-12-10T23:56:18.027Z,4.10
2018-12-10T23:58:47.228Z,4.10
